createdAt,value
2019-05-02T00:00:54.353Z,4.70
2019-05-02T00:03:55.005Z,4.70
2019-05-02T00:07:07.484Z,4.60
2019-05-02T00:09:55.917Z,4.60
2019-05-02T00:12:49.441Z,4.60
2019-05-02T00:15:39.196Z,4.50
2019-05-02T00:18:42.027Z,4.50
2019-05-02T00:21:38.157Z,4.50
2019-05-02T00:24:25.603Z,4.50
2019-05-02T00:27:26.448Z,4.50
2019-05-02T00:30:16.035Z,4.40
2019-05-02T00:33:12.976Z,4.30
2019-05-02T00:36:01.268Z,4.20
2019-05-02T00:39:04.482Z,4.10
2019-05-02T00:42:12.081Z,4.00
2019-05-02T00:44:51.700Z,4.00
2019-05-02T00:47:54.784Z,4.00
2019-05-02T00:50:45.335Z,3.90
2019-05-02T00:53:33.299Z,3.90
2019-05-02T00:56:25.323Z,3.90
2019-05-02T00:59:18.196Z,3.90
2019-05-02T01:02:28.376Z,3.90
2019-05-02T01:05:21.419Z,3.80
2019-05-02T01:08:11.245Z,3.80
2019-05-02T01:11:02.779Z,3.80
2019-05-02T01:13:55.826Z,3.70
2019-05-02T01:16:49.456Z,3.70
2019-05-02T01:19:42.275Z,3.70
2019-05-02T01:22:32.954Z,3.60
2019-05-02T01:25:23.866Z,3.50
2019-05-02T01:28:27.610Z,3.40
2019-05-02T01:31:40.203Z,3.50
2019-05-02T01:34:48.877Z,3.40
2019-05-02T01:38:17.809Z,3.30
2019-05-02T01:41:12.986Z,3.30
2019-05-02T01:44:04.408Z,3.30
2019-05-02T01:46:58.830Z,3.30
2019-05-02T01:49:44.593Z,3.30
2019-05-02T01:52:37.975Z,3.30
2019-05-02T01:55:45.379Z,3.20
2019-05-02T01:58:42.317Z,3.30
2019-05-02T02:01:40.301Z,3.20
2019-05-02T02:04:28.049Z,3.20
2019-05-02T02:07:26.773Z,3.10
2019-05-02T02:10:19.672Z,3.00
2019-05-02T02:13:10.197Z,3.00
2019-05-02T02:16:04.578Z,3.00
2019-05-02T02:19:05.353Z,3.00
2019-05-02T02:22:13.389Z,2.90
2019-05-02T02:25:36.251Z,2.90
2019-05-02T02:28:24.980Z,2.80
2019-05-02T02:31:17.568Z,2.80
2019-05-02T02:34:08.004Z,2.90
2019-05-02T02:37:05.684Z,2.80
2019-05-02T02:39:56.579Z,2.70
2019-05-02T02:42:45.326Z,2.70
2019-05-02T02:46:09.124Z,2.60
2019-05-02T02:49:00.731Z,2.70
2019-05-02T02:51:58.184Z,2.70
2019-05-02T02:54:49.942Z,2.80
2019-05-02T02:57:48.131Z,2.70
2019-05-02T03:00:41.549Z,2.60
2019-05-02T03:03:35.377Z,2.60
2019-05-02T03:06:25.487Z,2.50
2019-05-02T03:09:35.505Z,2.40
2019-05-02T03:12:44.737Z,2.40
2019-05-02T03:15:37.754Z,2.40
2019-05-02T03:18:39.840Z,2.30
2019-05-02T03:21:22.617Z,2.20
2019-05-02T03:24:13.470Z,2.20
2019-05-02T03:27:04.744Z,2.30
2019-05-02T03:29:53.111Z,2.30
2019-05-02T03:33:05.950Z,2.30
2019-05-02T03:35:48.971Z,2.30
2019-05-02T03:38:39.484Z,2.30
2019-05-02T03:41:31.445Z,2.20
2019-05-02T03:44:26.185Z,2.20
2019-05-02T03:47:16.213Z,2.20
2019-05-02T03:50:09.531Z,2.20
2019-05-02T03:53:01.352Z,2.10
2019-05-02T03:56:10.858Z,2.10
2019-05-02T03:59:00.189Z,2.10
2019-05-02T04:01:52.887Z,2.20
2019-05-02T04:04:45.985Z,2.20
2019-05-02T04:07:40.537Z,2.20
2019-05-02T04:11:22.760Z,2.20
2019-05-02T04:14:36.912Z,2.20
2019-05-02T04:17:16.135Z,2.10
2019-05-02T04:20:09.657Z,2.10
2019-05-02T04:23:14.533Z,2.10
2019-05-02T04:26:12.739Z,2.10
2019-05-02T04:29:02.802Z,2.10
2019-05-02T04:31:51.288Z,2.10
2019-05-02T04:34:40.084Z,2.20
2019-05-02T04:37:34.251Z,2.20
2019-05-02T04:40:28.342Z,2.30
2019-05-02T04:43:22.830Z,2.30
2019-05-02T04:46:22.176Z,2.40
2019-05-02T04:49:09.190Z,2.50
2019-05-02T04:52:06.900Z,2.50
2019-05-02T04:54:50.524Z,2.60
2019-05-02T04:57:55.458Z,2.70
2019-05-02T05:00:53.660Z,2.80
2019-05-02T05:03:38.637Z,2.90
2019-05-02T05:06:33.853Z,3.00
2019-05-02T05:09:28.973Z,3.20
2019-05-02T05:12:19.899Z,3.20
2019-05-02T05:15:13.363Z,3.30
2019-05-02T05:18:10.549Z,3.50
2019-05-02T05:21:01.175Z,3.50
2019-05-02T05:24:18.314Z,3.80
2019-05-02T05:27:13.263Z,3.90
2019-05-02T05:30:08.423Z,4.20
2019-05-02T05:32:55.756Z,4.30
2019-05-02T05:35:47.817Z,4.50
2019-05-02T05:38:40.456Z,4.60
2019-05-02T05:41:35.171Z,4.80
2019-05-02T05:44:28.619Z,5.00
2019-05-02T05:47:21.322Z,5.20
2019-05-02T05:50:17.490Z,5.30
2019-05-02T05:53:17.208Z,5.50
2019-05-02T05:56:13.982Z,5.70
2019-05-02T05:59:08.348Z,5.80
2019-05-02T06:02:14.467Z,6.00
2019-05-02T06:05:03.754Z,6.20
2019-05-02T06:07:51.625Z,6.40
2019-05-02T06:10:51.710Z,6.60
2019-05-02T06:13:48.717Z,6.70
2019-05-02T06:16:40.493Z,6.90
2019-05-02T06:19:36.555Z,7.10
2019-05-02T06:22:26.637Z,7.30
2019-05-02T06:25:32.870Z,7.50
2019-05-02T06:28:17.667Z,7.80
2019-05-02T06:31:08.650Z,8.00
2019-05-02T06:34:02.213Z,8.20
2019-05-02T06:36:57.086Z,8.40
2019-05-02T06:39:55.545Z,8.70
2019-05-02T06:42:57.695Z,8.80
2019-05-02T06:45:56.446Z,9.00
2019-05-02T06:48:52.306Z,9.40
2019-05-02T06:51:40.801Z,9.80
2019-05-02T06:54:33.016Z,10.00
2019-05-02T06:57:33.910Z,10.20
2019-05-02T07:00:35.412Z,10.30
2019-05-02T07:03:30.810Z,10.70
2019-05-02T07:06:24.937Z,10.80
2019-05-02T07:09:20.736Z,11.10
2019-05-02T07:12:14.835Z,11.30
2019-05-02T07:15:33.462Z,11.60
2019-05-02T07:18:42.099Z,11.80
2019-05-02T07:21:30.763Z,12.00
2019-05-02T07:24:19.395Z,12.20
2019-05-02T07:27:12.981Z,12.40
2019-05-02T07:30:01.596Z,12.50
2019-05-02T07:32:51.917Z,12.80
2019-05-02T07:35:49.050Z,12.90
2019-05-02T07:38:44.214Z,13.10
2019-05-02T07:41:37.278Z,13.30
2019-05-02T07:44:34.498Z,13.50
2019-05-02T07:47:34.688Z,13.70
2019-05-02T07:50:29.181Z,13.80
2019-05-02T07:53:25.207Z,14.10
2019-05-02T07:56:22.332Z,14.20
2019-05-02T07:59:12.831Z,14.50
2019-05-02T08:02:02.819Z,14.50
2019-05-02T08:04:58.523Z,14.50
2019-05-02T08:07:53.484Z,14.70
2019-05-02T08:10:44.722Z,14.90
2019-05-02T08:13:49.426Z,15.00
2019-05-02T08:16:43.662Z,15.20
2019-05-02T08:19:37.426Z,15.20
2019-05-02T08:22:29.700Z,15.40
2019-05-02T08:25:24.983Z,15.70
2019-05-02T08:28:23.339Z,15.80
2019-05-02T08:31:18.983Z,15.90
2019-05-02T08:34:16.145Z,16.00
2019-05-02T08:37:10.576Z,16.10
2019-05-02T08:40:10.736Z,16.30
2019-05-02T08:43:03.397Z,16.00
2019-05-02T08:45:51.663Z,16.10
2019-05-02T08:48:44.984Z,16.10
2019-05-02T08:51:45.999Z,16.30
2019-05-02T08:54:37.577Z,16.50
2019-05-02T08:57:41.046Z,16.60
2019-05-02T09:00:37.593Z,16.40
2019-05-02T09:03:38.912Z,16.70
2019-05-02T09:06:29.618Z,16.60
2019-05-02T09:09:48.277Z,16.60
2019-05-02T09:12:47.747Z,16.90
2019-05-02T09:15:40.182Z,17.20
2019-05-02T09:18:40.628Z,17.40
2019-05-02T09:21:34.221Z,17.60
2019-05-02T09:24:26.081Z,17.70
2019-05-02T09:27:17.563Z,17.60
2019-05-02T09:30:12.065Z,17.50
2019-05-02T09:33:06.476Z,17.50
2019-05-02T09:35:55.631Z,17.60
2019-05-02T09:38:55.945Z,17.60
2019-05-02T09:41:45.167Z,17.90
2019-05-02T09:44:55.775Z,17.90
2019-05-02T09:47:56.728Z,18.10
2019-05-02T09:50:38.465Z,18.10
2019-05-02T09:54:01.481Z,18.20
2019-05-02T09:56:49.178Z,18.20
2019-05-02T09:59:43.458Z,18.20
2019-05-02T10:02:32.527Z,18.30
2019-05-02T10:05:24.269Z,18.10
2019-05-02T10:08:22.807Z,18.40
2019-05-02T10:11:24.382Z,18.40
2019-05-02T10:14:12.243Z,18.50
2019-05-02T10:17:07.434Z,18.60
2019-05-02T10:20:02.000Z,18.50
2019-05-02T10:22:58.445Z,18.50
2019-05-02T10:25:52.075Z,18.80
2019-05-02T10:28:49.561Z,19.00
2019-05-02T10:31:37.445Z,18.90
2019-05-02T10:34:25.671Z,19.10
2019-05-02T10:37:21.708Z,19.20
2019-05-02T10:40:17.335Z,19.50
2019-05-02T10:43:13.314Z,19.50
2019-05-02T10:46:23.001Z,19.40
2019-05-02T10:49:39.849Z,19.20
2019-05-02T10:52:43.416Z,19.20
2019-05-02T10:55:37.845Z,19.40
2019-05-02T10:58:38.214Z,19.70
2019-05-02T11:01:43.056Z,19.30
2019-05-02T11:04:33.003Z,19.20
2019-05-02T11:07:26.218Z,19.30
2019-05-02T11:10:12.968Z,19.10
2019-05-02T11:13:26.879Z,19.20
2019-05-02T11:16:39.331Z,19.30
2019-05-02T11:19:47.014Z,19.50
2019-05-02T11:22:42.793Z,19.30
2019-05-02T11:25:31.940Z,19.70
2019-05-02T11:28:25.024Z,19.20
2019-05-02T11:31:15.188Z,19.20
2019-05-02T11:34:04.287Z,19.50
2019-05-02T11:36:54.375Z,19.70
2019-05-02T11:39:52.834Z,19.80
2019-05-02T11:42:41.642Z,19.80
2019-05-02T11:45:32.219Z,19.80
2019-05-02T11:48:23.645Z,19.80
2019-05-02T11:51:17.794Z,20.10
2019-05-02T11:54:09.295Z,20.10
2019-05-02T11:56:59.136Z,19.90
2019-05-02T11:59:52.767Z,20.00
2019-05-02T12:03:02.200Z,20.00
2019-05-02T12:05:52.409Z,20.20
2019-05-02T12:08:45.006Z,19.80
2019-05-02T12:11:41.753Z,20.00
2019-05-02T12:14:41.884Z,20.20
2019-05-02T12:17:36.150Z,20.00
2019-05-02T12:20:33.913Z,20.20
2019-05-02T12:23:27.205Z,20.40
2019-05-02T12:26:18.591Z,20.60
2019-05-02T12:29:12.295Z,20.30
2019-05-02T12:32:03.827Z,20.30
2019-05-02T12:34:52.671Z,20.10
2019-05-02T12:37:52.392Z,19.90
2019-05-02T12:40:45.365Z,20.00
2019-05-02T12:43:41.612Z,20.20
2019-05-02T12:46:34.141Z,20.50
2019-05-02T12:49:28.622Z,20.50
2019-05-02T12:52:22.440Z,20.40
2019-05-02T12:55:12.616Z,20.40
2019-05-02T12:58:03.722Z,20.20
2019-05-02T13:00:55.924Z,20.30
2019-05-02T13:03:54.663Z,20.20
2019-05-02T13:06:53.743Z,20.10
2019-05-02T13:09:43.133Z,20.20
2019-05-02T13:12:39.202Z,20.50
2019-05-02T13:15:32.851Z,20.80
2019-05-02T13:18:27.255Z,20.90
2019-05-02T13:21:21.572Z,20.90
2019-05-02T13:24:33.494Z,20.80
2019-05-02T13:27:32.278Z,21.00
2019-05-02T13:30:46.597Z,20.80
2019-05-02T13:33:55.162Z,21.00
2019-05-02T13:36:48.996Z,20.80
2019-05-02T13:39:48.198Z,20.50
2019-05-02T13:42:36.419Z,20.30
2019-05-02T13:45:32.804Z,20.70
2019-05-02T13:48:22.107Z,20.60
2019-05-02T13:51:12.372Z,20.60
2019-05-02T13:54:03.923Z,20.80
2019-05-02T13:56:55.876Z,20.80
2019-05-02T13:59:47.095Z,20.40
2019-05-02T14:02:38.386Z,20.60
2019-05-02T14:05:32.659Z,20.60
2019-05-02T14:08:37.649Z,20.30
2019-05-02T14:12:02.816Z,20.00
2019-05-02T14:14:51.923Z,20.00
2019-05-02T14:17:41.850Z,19.70
2019-05-02T14:20:32.893Z,19.60
2019-05-02T14:23:31.938Z,19.60
2019-05-02T14:26:30.389Z,19.70
2019-05-02T14:29:17.646Z,19.80
2019-05-02T14:32:21.387Z,19.90
2019-05-02T14:35:18.566Z,20.10
2019-05-02T14:38:13.190Z,20.10
2019-05-02T14:41:29.667Z,20.10
2019-05-02T14:44:24.670Z,20.00
2019-05-02T14:47:17.710Z,19.90
2019-05-02T14:50:23.517Z,19.70
2019-05-02T14:53:04.591Z,19.60
2019-05-02T14:56:14.434Z,19.60
2019-05-02T14:59:13.824Z,19.60
2019-05-02T15:02:12.919Z,19.80
2019-05-02T15:05:07.190Z,19.90
2019-05-02T15:08:11.849Z,20.40
2019-05-02T15:11:03.446Z,20.60
2019-05-02T15:13:55.840Z,20.30
2019-05-02T15:16:49.767Z,20.10
2019-05-02T15:20:02.871Z,20.10
2019-05-02T15:23:19.774Z,20.20
2019-05-02T15:26:06.197Z,20.20
2019-05-02T15:29:01.904Z,20.10
2019-05-02T15:32:18.194Z,20.10
2019-05-02T15:35:28.788Z,20.00
2019-05-02T15:38:24.795Z,20.10
2019-05-02T15:41:13.584Z,19.90
2019-05-02T15:43:59.720Z,19.80
2019-05-02T15:46:53.129Z,19.70
2019-05-02T15:49:46.875Z,19.40
2019-05-02T15:52:38.488Z,19.30
2019-05-02T15:55:33.829Z,19.20
2019-05-02T15:58:22.996Z,18.90
2019-05-02T16:01:22.472Z,18.70
2019-05-02T16:04:12.765Z,18.70
2019-05-02T16:07:08.526Z,18.50
2019-05-02T16:10:01.280Z,18.30
2019-05-02T16:12:52.673Z,18.20
2019-05-02T16:15:42.739Z,18.20
2019-05-02T16:18:31.718Z,18.10
2019-05-02T16:21:44.250Z,17.90
2019-05-02T16:24:48.865Z,17.90
2019-05-02T16:27:49.678Z,17.50
2019-05-02T16:30:44.168Z,17.10
2019-05-02T16:33:31.955Z,16.70
2019-05-02T16:36:26.052Z,16.50
2019-05-02T16:39:26.821Z,16.20
2019-05-02T16:42:16.621Z,15.60
2019-05-02T16:45:05.661Z,14.80
2019-05-02T16:48:00.506Z,14.60
2019-05-02T16:50:52.561Z,14.60
2019-05-02T16:53:49.197Z,14.30
2019-05-02T16:56:46.872Z,14.20
2019-05-02T16:59:35.258Z,13.90
2019-05-02T17:02:23.589Z,13.60
2019-05-02T17:05:12.732Z,13.50
2019-05-02T17:08:32.837Z,13.60
2019-05-02T17:11:34.169Z,13.50
2019-05-02T17:14:22.068Z,13.60
2019-05-02T17:17:12.268Z,13.30
2019-05-02T17:20:06.983Z,12.80
2019-05-02T17:23:07.454Z,12.50
2019-05-02T17:26:09.654Z,12.40
2019-05-02T17:28:57.659Z,12.20
2019-05-02T17:32:08.738Z,12.30
2019-05-02T17:35:04.548Z,12.30
2019-05-02T17:37:56.420Z,12.30
2019-05-02T17:40:59.277Z,12.40
2019-05-02T17:44:03.209Z,12.40
2019-05-02T17:47:02.794Z,12.50
2019-05-02T17:50:01.971Z,12.50
2019-05-02T17:53:03.651Z,12.60
2019-05-02T17:56:03.400Z,12.70
2019-05-02T17:59:06.063Z,12.70
2019-05-02T18:02:06.547Z,12.70
2019-05-02T18:05:02.769Z,12.70
2019-05-02T18:08:00.755Z,12.70
2019-05-02T18:10:58.091Z,12.70
2019-05-02T18:13:48.698Z,12.70
2019-05-02T18:16:47.225Z,12.50
2019-05-02T18:19:43.967Z,12.20
2019-05-02T18:22:27.793Z,12.10
2019-05-02T18:25:25.612Z,12.20
2019-05-02T18:28:46.928Z,12.20
2019-05-02T18:31:59.002Z,12.10
2019-05-02T18:34:48.729Z,11.90
2019-05-02T18:38:02.540Z,11.90
2019-05-02T18:40:52.112Z,11.90
2019-05-02T18:43:45.167Z,12.10
2019-05-02T18:47:02.312Z,12.10
2019-05-02T18:50:00.307Z,12.20
2019-05-02T18:52:43.187Z,12.00
2019-05-02T18:55:42.891Z,11.90
2019-05-02T18:58:41.355Z,11.80
2019-05-02T19:01:52.712Z,11.60
2019-05-02T19:04:45.732Z,11.50
2019-05-02T19:07:52.662Z,11.30
2019-05-02T19:11:06.065Z,11.30
2019-05-02T19:13:55.575Z,11.30
2019-05-02T19:16:44.518Z,11.40
2019-05-02T19:19:41.911Z,11.40
2019-05-02T19:22:50.753Z,11.20
2019-05-02T19:25:40.889Z,11.20
2019-05-02T19:28:52.409Z,10.90
2019-05-02T19:31:56.422Z,11.00
2019-05-02T19:35:12.478Z,11.10
2019-05-02T19:38:09.413Z,11.10
2019-05-02T19:41:09.350Z,10.90
2019-05-02T19:44:29.244Z,10.70
2019-05-02T19:47:17.492Z,10.50
2019-05-02T19:50:03.623Z,10.40
2019-05-02T19:53:14.962Z,10.40
2019-05-02T19:55:57.249Z,10.30
2019-05-02T19:58:48.508Z,10.20
2019-05-02T20:01:39.587Z,10.20
2019-05-02T20:04:44.717Z,10.10
2019-05-02T20:07:33.540Z,10.20
2019-05-02T20:10:33.348Z,10.20
2019-05-02T20:14:09.470Z,10.00
2019-05-02T20:16:57.194Z,9.80
2019-05-02T20:20:02.793Z,9.60
2019-05-02T20:22:52.452Z,9.40
2019-05-02T20:25:40.144Z,9.20
2019-05-02T20:28:44.095Z,9.10
2019-05-02T20:31:32.732Z,9.10
2019-05-02T20:34:37.882Z,9.00
2019-05-02T20:38:13.822Z,9.00
2019-05-02T20:40:45.600Z,8.90
2019-05-02T20:43:34.490Z,8.90
2019-05-02T20:46:23.408Z,8.90
2019-05-02T20:49:12.869Z,8.80
2019-05-02T20:52:13.421Z,8.80
2019-05-02T20:55:05.511Z,8.90
2019-05-02T20:57:57.171Z,8.80
2019-05-02T21:01:08.906Z,8.80
2019-05-02T21:04:04.365Z,8.80
2019-05-02T21:11:07.339Z,8.70
2019-05-02T21:14:21.753Z,8.70
2019-05-02T21:17:34.345Z,8.60
2019-05-02T21:20:41.773Z,8.50
2019-05-02T21:23:47.367Z,8.30
2019-05-02T21:26:43.507Z,8.40
2019-05-02T21:29:43.294Z,8.50
2019-05-02T21:32:55.826Z,8.30
2019-05-02T21:35:56.748Z,8.30
2019-05-02T21:39:02.787Z,8.40
2019-05-02T21:42:29.061Z,8.40
2019-05-02T21:45:19.006Z,8.30
2019-05-02T21:48:08.331Z,8.40
2019-05-02T21:51:44.045Z,8.30
2019-05-02T21:54:48.455Z,8.30
2019-05-02T21:57:36.646Z,8.30
2019-05-02T22:00:45.347Z,8.30
2019-05-02T22:03:33.673Z,8.20
2019-05-02T22:06:22.681Z,8.20
2019-05-02T22:09:12.309Z,8.00
2019-05-02T22:12:01.590Z,8.00
2019-05-02T22:14:49.820Z,7.90
2019-05-02T22:17:41.617Z,8.00
2019-05-02T22:20:32.070Z,8.10
2019-05-02T22:23:48.689Z,8.20
2019-05-02T22:26:34.918Z,8.20
2019-05-02T22:29:28.933Z,8.30
2019-05-02T22:32:17.610Z,8.20
2019-05-02T22:35:13.116Z,8.20
2019-05-02T22:38:14.760Z,8.00
2019-05-02T22:41:09.445Z,8.00
2019-05-02T22:44:03.160Z,8.10
2019-05-02T22:47:01.517Z,8.10
2019-05-02T22:50:13.894Z,8.20
2019-05-02T22:53:02.488Z,8.30
2019-05-02T22:55:57.946Z,8.40
2019-05-02T22:59:15.465Z,8.50
2019-05-02T23:02:12.602Z,8.40
2019-05-02T23:05:08.042Z,8.50
2019-05-02T23:08:12.515Z,8.60
2019-05-02T23:11:03.522Z,8.70
2019-05-02T23:13:51.916Z,8.50
2019-05-02T23:16:46.208Z,8.50
2019-05-02T23:19:42.322Z,8.70
2019-05-02T23:22:38.364Z,8.70
2019-05-02T23:26:10.269Z,8.70
2019-05-02T23:29:02.225Z,8.80
2019-05-02T23:31:54.792Z,8.80
2019-05-02T23:34:53.083Z,8.80
2019-05-02T23:37:50.420Z,8.80
2019-05-02T23:40:43.959Z,8.80
2019-05-02T23:43:36.976Z,8.80
2019-05-02T23:46:28.390Z,8.80
2019-05-02T23:49:21.964Z,8.80
2019-05-02T23:52:15.851Z,8.80
2019-05-02T23:55:17.504Z,8.90
2019-05-02T23:58:11.897Z,8.90
